Central Milton Keynes, United Kingdom
Current Conditions -  °F | °C
As of 7:50 AM on Friday 24 Oct 2014 (Local Time) from EGTC Reporting Station
Broken Clouds Broken Clouds  
Wind Chill: 57°   Ceiling: 2000
Heat Index: 57°   Visibility: 6mi
Dew Point: 57°   Wind: 13mph
Humidity: 100%   Direction: 220°SW
Pressure: 29.94"   Gusts: NA
Location:  52.04°N, 0.76°W
Report Text: EGTC 240650Z 22011KT 9999 FEW010 BKN020 14/14 Q1014
Loading
Personal Weather Stations






























Interactive Weather Map
Tropical Storm Tracking
New forecast layout! Learn more

10-Day Weather Forecast

Advertisements
Track Severe Weather on mobile